Theux, Belgium
Current Conditions -  °F | °C
As of 3:25 PM on Monday 20 Oct 2014 (Local Time) from EBLB Reporting Station
Broken Clouds Broken Clouds  
Wind Chill: 55°   Ceiling: 2600
Heat Index: 55°   Visibility: 6mi
Dew Point: 48°   Wind: 8mph
Humidity: 77%   Direction: 270°W
Pressure: 30.06"   Gusts: NA
Location:  50.53°N, 5.81°E
Report Text: EBLB 201325Z AUTO 27007KT 9999 FEW016/// SCT021/// BKN026/// 13/09 Q1018 WHT
Loading
Personal Weather Stations






























Interactive Weather Map
Tropical Storm Tracking
New forecast layout! Learn more

10-Day Weather Forecast

Advertisements
Track Severe Weather on mobile